createdAt,value
2022-08-29T00:01:22.949Z,57.80
2022-08-29T00:03:50.313Z,57.57
2022-08-29T00:06:17.333Z,57.62
2022-08-29T00:08:44.292Z,57.73
2022-08-29T00:11:11.331Z,57.37
2022-08-29T00:13:38.253Z,57.36
2022-08-29T00:16:05.702Z,57.82
2022-08-29T00:18:33.258Z,57.73
2022-08-29T00:21:00.177Z,57.79
2022-08-29T00:23:27.087Z,57.79
2022-08-29T00:25:54.777Z,57.86
2022-08-29T00:28:21.824Z,57.86
2022-08-29T00:30:49.071Z,57.75
2022-08-29T00:33:17.012Z,58.01
2022-08-29T00:35:46.299Z,58.18
2022-08-29T00:38:18.298Z,58.76
2022-08-29T00:40:55.663Z,58.70
2022-08-29T00:43:31.326Z,58.47
2022-08-29T00:46:18.788Z,58.86
2022-08-29T00:48:59.459Z,58.99
2022-08-29T00:51:26.405Z,58.92
2022-08-29T00:54:01.208Z,59.08
2022-08-29T00:56:29.336Z,58.89
2022-08-29T00:59:07.858Z,59.17
2022-08-29T01:01:35.060Z,59.14
2022-08-29T01:04:02.020Z,59.26
2022-08-29T01:06:32.648Z,59.13
2022-08-29T01:08:59.686Z,59.05
2022-08-29T01:11:48.264Z,58.83
2022-08-29T01:14:18.471Z,59.24
2022-08-29T01:16:47.218Z,58.91
2022-08-29T01:20:00.873Z,58.95
2022-08-29T01:23:13.622Z,59.01
2022-08-29T01:25:48.587Z,59.05
2022-08-29T01:28:37.579Z,59.40
2022-08-29T01:31:46.942Z,59.41
2022-08-29T01:34:04.878Z,58.90
2022-08-29T01:36:50.356Z,59.18
2022-08-29T01:39:19.384Z,59.30
2022-08-29T01:41:46.292Z,59.50
2022-08-29T01:44:20.238Z,59.32
2022-08-29T01:46:58.032Z,59.54
2022-08-29T01:49:28.710Z,59.72
2022-08-29T01:51:55.654Z,59.84
2022-08-29T01:54:22.586Z,59.97
2022-08-29T01:56:52.812Z,60.47
2022-08-29T01:59:25.385Z,60.66
2022-08-29T02:02:07.446Z,60.31
2022-08-29T02:04:35.217Z,60.60
2022-08-29T02:07:03.316Z,60.67
2022-08-29T02:09:30.439Z,60.64
2022-08-29T02:12:00.230Z,60.60
2022-08-29T02:14:27.126Z,60.60
2022-08-29T02:16:54.293Z,60.52
2022-08-29T02:19:21.179Z,60.88
2022-08-29T02:21:51.076Z,60.81
2022-08-29T02:24:26.237Z,60.84
2022-08-29T02:26:55.435Z,60.98
2022-08-29T02:29:22.862Z,61.15
2022-08-29T02:31:49.805Z,61.36
2022-08-29T02:34:17.580Z,61.29
2022-08-29T02:36:44.793Z,61.36
2022-08-29T02:39:15.072Z,61.64
2022-08-29T02:41:42.066Z,61.66
2022-08-29T02:44:11.600Z,61.62
2022-08-29T02:46:38.632Z,61.69
2022-08-29T02:49:05.635Z,61.98
2022-08-29T02:51:33.740Z,61.75
2022-08-29T02:54:02.027Z,61.95
2022-08-29T02:56:29.863Z,61.81
2022-08-29T02:58:57.695Z,61.79
2022-08-29T03:01:26.131Z,61.88
2022-08-29T03:03:53.670Z,61.88
2022-08-29T03:06:21.917Z,62.14
2022-08-29T03:08:50.363Z,62.26
2022-08-29T03:11:18.106Z,62.23
2022-08-29T03:13:45.829Z,62.56
2022-08-29T03:16:13.549Z,62.18
2022-08-29T03:18:40.519Z,62.52
2022-08-29T03:21:17.231Z,62.83
2022-08-29T03:23:44.123Z,62.68
2022-08-29T03:26:11.040Z,62.42
2022-08-29T03:28:37.930Z,62.79
2022-08-29T03:31:05.168Z,63.00
2022-08-29T03:33:32.093Z,63.13
2022-08-29T03:35:59.079Z,62.92
2022-08-29T03:38:25.979Z,62.67
2022-08-29T03:40:53.414Z,63.24
2022-08-29T03:43:25.055Z,63.63
2022-08-29T03:45:52.576Z,63.75
2022-08-29T03:48:19.470Z,64.03
2022-08-29T03:50:46.398Z,63.96
2022-08-29T03:53:13.500Z,64.06
2022-08-29T03:55:40.434Z,64.17
2022-08-29T03:58:07.863Z,64.01
2022-08-29T04:00:34.860Z,64.23
2022-08-29T04:03:01.977Z,64.37
2022-08-29T04:05:28.939Z,64.45
2022-08-29T04:07:59.352Z,64.81
2022-08-29T04:10:34.468Z,64.68
2022-08-29T04:13:01.652Z,64.47
2022-08-29T04:15:29.432Z,64.73
2022-08-29T04:18:03.393Z,64.95
2022-08-29T04:20:34.051Z,65.04
2022-08-29T04:23:01.391Z,65.15
2022-08-29T04:25:37.224Z,64.99
2022-08-29T04:28:11.028Z,65.43
2022-08-29T04:30:39.755Z,65.04
2022-08-29T04:33:06.995Z,65.63
2022-08-29T04:35:35.533Z,65.46
2022-08-29T04:38:02.480Z,65.60
2022-08-29T04:40:29.633Z,65.44
2022-08-29T04:42:58.105Z,65.63
2022-08-29T04:45:25.674Z,66.27
2022-08-29T04:47:52.963Z,65.59
2022-08-29T04:50:23.033Z,66.02
2022-08-29T04:52:52.397Z,65.92
2022-08-29T04:55:22.676Z,66.11
2022-08-29T04:57:56.237Z,65.68
2022-08-29T05:00:28.040Z,65.89
2022-08-29T05:02:55.793Z,65.68
2022-08-29T05:05:23.092Z,65.80
2022-08-29T05:07:49.997Z,66.06
2022-08-29T05:10:20.391Z,65.93
2022-08-29T05:12:47.759Z,65.95
2022-08-29T05:15:15.866Z,65.43
2022-08-29T05:17:43.611Z,65.78
2022-08-29T05:20:12.061Z,65.62
2022-08-29T05:22:40.355Z,65.64
2022-08-29T05:25:07.872Z,65.42
2022-08-29T05:27:34.865Z,65.29
2022-08-29T05:30:04.107Z,65.42
2022-08-29T05:32:31.041Z,65.32
2022-08-29T05:34:58.881Z,65.27
2022-08-29T05:37:26.371Z,65.55
2022-08-29T05:39:53.336Z,65.71
2022-08-29T05:42:22.171Z,65.86
2022-08-29T05:44:49.648Z,66.01
2022-08-29T05:47:18.951Z,66.19
2022-08-29T05:49:47.114Z,66.21
2022-08-29T05:52:17.925Z,66.21
2022-08-29T05:54:45.431Z,66.21
2022-08-29T05:57:18.909Z,66.26
2022-08-29T05:59:48.014Z,66.53
2022-08-29T06:02:15.557Z,66.48
2022-08-29T06:04:42.559Z,66.51
2022-08-29T06:07:10.360Z,66.58
2022-08-29T06:09:39.487Z,66.81
2022-08-29T06:12:08.074Z,66.66
2022-08-29T06:14:35.155Z,66.53
2022-08-29T06:17:02.398Z,66.33
2022-08-29T06:19:34.692Z,66.43
2022-08-29T06:22:03.601Z,66.44
2022-08-29T06:24:38.726Z,66.19
2022-08-29T06:27:06.153Z,66.02
2022-08-29T06:29:33.104Z,65.95
2022-08-29T06:32:09.877Z,65.87
2022-08-29T06:34:36.861Z,65.80
2022-08-29T06:37:03.804Z,65.48
2022-08-29T06:39:30.804Z,65.47
2022-08-29T06:41:57.750Z,65.60
2022-08-29T06:44:25.122Z,65.53
2022-08-29T06:46:52.233Z,65.28
2022-08-29T06:49:20.591Z,65.43
2022-08-29T06:51:57.430Z,65.37
2022-08-29T06:54:28.082Z,65.34
2022-08-29T06:56:56.553Z,65.24
2022-08-29T06:59:23.607Z,65.50
2022-08-29T07:01:50.746Z,65.43
2022-08-29T07:04:20.627Z,65.47
2022-08-29T07:06:48.319Z,65.68
2022-08-29T07:09:15.332Z,65.75
2022-08-29T07:11:43.132Z,65.33
2022-08-29T07:14:11.706Z,65.59
2022-08-29T07:16:39.668Z,65.83
2022-08-29T07:19:10.125Z,65.57
2022-08-29T07:21:38.116Z,65.21
2022-08-29T07:24:05.946Z,64.91
2022-08-29T07:26:38.825Z,64.65
2022-08-29T07:29:13.070Z,64.42
2022-08-29T07:31:40.159Z,64.33
2022-08-29T07:34:07.663Z,64.14
2022-08-29T07:36:35.880Z,63.50
2022-08-29T07:39:08.603Z,63.08
2022-08-29T07:41:35.854Z,62.46
2022-08-29T07:44:03.012Z,62.25
2022-08-29T07:46:31.498Z,62.15
2022-08-29T07:49:00.145Z,62.22
2022-08-29T07:51:28.526Z,61.79
2022-08-29T07:53:56.683Z,61.26
2022-08-29T07:56:28.175Z,60.74
2022-08-29T07:58:56.607Z,61.12
2022-08-29T08:01:24.705Z,61.05
2022-08-29T08:03:53.020Z,61.33
2022-08-29T08:06:27.364Z,60.49
2022-08-29T08:08:55.398Z,60.64
2022-08-29T08:11:24.838Z,60.43
2022-08-29T08:13:53.776Z,59.41
2022-08-29T08:16:25.003Z,58.79
2022-08-29T08:18:53.310Z,59.02
2022-08-29T08:21:20.679Z,58.98
2022-08-29T08:23:47.655Z,58.38
2022-08-29T08:26:15.273Z,58.37
2022-08-29T08:28:43.685Z,57.63
2022-08-29T08:31:14.261Z,58.15
2022-08-29T08:33:42.727Z,57.82
2022-08-29T08:36:22.563Z,56.84
2022-08-29T08:38:51.421Z,55.92
2022-08-29T08:41:29.613Z,55.86
2022-08-29T08:44:07.069Z,55.85
2022-08-29T08:46:43.078Z,55.70
2022-08-29T08:49:38.620Z,55.41
2022-08-29T08:52:18.643Z,56.01
2022-08-29T08:55:20.892Z,55.91
2022-08-29T08:58:01.451Z,56.40
2022-08-29T09:00:38.318Z,56.06
2022-08-29T09:03:17.034Z,55.76
2022-08-29T09:06:15.752Z,55.83
2022-08-29T09:09:34.364Z,55.44
2022-08-29T09:12:32.518Z,55.26
2022-08-29T09:15:07.871Z,55.63
2022-08-29T09:18:01.381Z,55.28
2022-08-29T09:20:34.120Z,56.01
2022-08-29T09:23:07.469Z,55.84
2022-08-29T09:25:36.374Z,55.66
2022-08-29T09:28:07.225Z,54.64
2022-08-29T09:30:36.740Z,55.28
2022-08-29T09:33:08.901Z,54.98
2022-08-29T09:35:44.369Z,55.29
2022-08-29T09:38:23.966Z,55.18
2022-08-29T09:40:56.933Z,54.53
2022-08-29T09:43:39.062Z,54.32
2022-08-29T09:46:10.911Z,53.45
2022-08-29T09:48:42.130Z,53.67
2022-08-29T09:51:22.200Z,53.16
2022-08-29T09:53:49.395Z,53.45
2022-08-29T09:56:25.136Z,53.17
2022-08-29T09:59:11.786Z,53.44
2022-08-29T10:01:39.553Z,53.08
2022-08-29T10:04:08.054Z,52.34
2022-08-29T10:06:45.030Z,51.96
2022-08-29T10:09:28.038Z,52.25
2022-08-29T10:12:16.829Z,51.69
2022-08-29T10:14:54.957Z,51.51
2022-08-29T10:17:56.461Z,51.82
2022-08-29T10:20:40.397Z,51.91
2022-08-29T10:23:30.927Z,51.77
2022-08-29T10:26:04.983Z,51.45
2022-08-29T10:28:43.082Z,51.98
2022-08-29T10:31:19.912Z,51.92
2022-08-29T10:34:11.231Z,50.92
2022-08-29T10:36:40.684Z,51.08
2022-08-29T10:39:19.242Z,50.91
2022-08-29T10:42:11.638Z,51.29
2022-08-29T10:45:25.351Z,51.15
2022-08-29T10:48:06.764Z,50.70
2022-08-29T10:51:05.369Z,50.95
2022-08-29T10:53:44.139Z,50.62
2022-08-29T10:56:28.623Z,50.36
2022-08-29T10:59:18.186Z,49.78
2022-08-29T11:02:01.710Z,50.11
2022-08-29T11:04:37.876Z,49.73
2022-08-29T11:07:16.341Z,48.96
2022-08-29T11:09:58.941Z,49.41
2022-08-29T11:12:55.686Z,49.67
2022-08-29T11:15:44.974Z,49.43
2022-08-29T11:18:59.100Z,49.61
2022-08-29T11:21:39.435Z,49.38
2022-08-29T11:24:07.408Z,49.47
2022-08-29T11:26:43.163Z,49.13
2022-08-29T11:29:50.833Z,49.55
2022-08-29T11:32:50.749Z,49.79
2022-08-29T11:36:02.449Z,49.68
2022-08-29T11:39:05.304Z,49.30
2022-08-29T11:41:38.701Z,49.67
2022-08-29T11:44:29.827Z,49.37
2022-08-29T11:46:57.831Z,49.07
2022-08-29T11:49:32.053Z,49.32
2022-08-29T11:52:18.907Z,49.70
2022-08-29T11:55:16.195Z,49.16
2022-08-29T11:58:22.988Z,49.57
2022-08-29T12:00:56.157Z,49.47
2022-08-29T12:03:35.670Z,50.13
2022-08-29T12:06:39.700Z,50.04
2022-08-29T12:09:13.828Z,49.17
2022-08-29T12:12:02.411Z,49.86
2022-08-29T12:14:43.831Z,50.16
2022-08-29T12:17:58.260Z,49.79
2022-08-29T12:20:38.057Z,49.83
2022-08-29T12:23:11.206Z,50.03
2022-08-29T12:28:58.136Z,50.21
2022-08-29T12:32:17.821Z,49.80
2022-08-29T12:35:22.430Z,49.46
2022-08-29T12:38:50.010Z,49.42
2022-08-29T12:41:56.557Z,49.12
2022-08-29T12:44:37.427Z,49.73
2022-08-29T12:47:25.178Z,49.69
2022-08-29T12:49:57.377Z,49.52
2022-08-29T12:52:31.691Z,49.73
2022-08-29T12:55:23.817Z,49.80
2022-08-29T12:57:56.922Z,49.28
2022-08-29T13:00:29.109Z,48.91
2022-08-29T13:03:05.381Z,48.86
2022-08-29T13:05:41.954Z,48.61
2022-08-29T13:08:26.299Z,48.89
2022-08-29T13:11:01.464Z,48.69
2022-08-29T13:13:30.008Z,48.51
2022-08-29T13:16:01.902Z,48.98
2022-08-29T13:18:31.155Z,49.11
2022-08-29T13:21:14.006Z,48.98
2022-08-29T13:23:47.188Z,49.19
2022-08-29T13:26:14.244Z,48.89
2022-08-29T13:28:59.556Z,49.50
2022-08-29T13:31:36.255Z,49.07
2022-08-29T13:34:19.617Z,48.84
2022-08-29T13:37:00.596Z,48.63
2022-08-29T13:39:43.465Z,48.49
2022-08-29T13:42:20.562Z,47.65
2022-08-29T13:44:51.787Z,46.72
2022-08-29T13:47:40.430Z,46.99
2022-08-29T13:50:13.240Z,46.77
2022-08-29T13:52:40.172Z,47.28
2022-08-29T13:55:09.863Z,47.03
2022-08-29T13:57:40.924Z,48.18
2022-08-29T14:00:11.689Z,49.81
2022-08-29T14:02:44.626Z,50.60
2022-08-29T14:05:13.703Z,51.44
2022-08-29T14:07:43.314Z,52.41
2022-08-29T14:10:12.984Z,53.18
2022-08-29T14:12:40.047Z,53.92
2022-08-29T14:15:10.716Z,53.98
2022-08-29T14:17:40.977Z,54.27
2022-08-29T14:20:12.475Z,54.60
2022-08-29T14:22:40.016Z,54.52
2022-08-29T14:25:10.677Z,54.36
2022-08-29T14:27:38.682Z,54.03
2022-08-29T14:30:08.954Z,53.60
2022-08-29T14:32:35.920Z,54.04
2022-08-29T14:35:04.534Z,53.30
2022-08-29T14:37:33.160Z,53.74
2022-08-29T14:40:00.143Z,53.49
2022-08-29T14:42:27.402Z,52.33
2022-08-29T14:44:54.310Z,52.48
2022-08-29T14:47:21.236Z,52.19
2022-08-29T14:49:48.133Z,51.74
2022-08-29T14:52:15.257Z,51.78
2022-08-29T14:54:43.136Z,51.45
2022-08-29T14:57:11.224Z,51.58
2022-08-29T14:59:40.565Z,51.24
2022-08-29T15:02:09.955Z,51.21
2022-08-29T15:04:37.966Z,51.04
2022-08-29T15:07:11.789Z,51.87
2022-08-29T15:09:41.884Z,52.68
2022-08-29T15:12:09.226Z,53.17
2022-08-29T15:14:36.246Z,53.81
2022-08-29T15:17:06.469Z,53.98
2022-08-29T15:22:22.767Z,53.67
2022-08-29T15:24:51.349Z,53.36
2022-08-29T15:27:26.860Z,53.41
2022-08-29T15:29:55.430Z,53.10
2022-08-29T15:32:22.532Z,52.54
2022-08-29T15:34:49.751Z,52.93
2022-08-29T15:37:16.806Z,52.88
2022-08-29T15:39:43.709Z,53.41
2022-08-29T15:42:12.128Z,53.81
2022-08-29T15:44:44.312Z,53.46
2022-08-29T15:47:11.522Z,53.46
2022-08-29T15:49:39.502Z,52.92
2022-08-29T15:52:06.577Z,53.18
2022-08-29T15:54:33.509Z,53.69
2022-08-29T15:57:00.424Z,53.65
2022-08-29T15:59:54.434Z,52.95
2022-08-29T16:02:15.117Z,52.55
2022-08-29T16:04:47.472Z,52.17
2022-08-29T16:07:16.840Z,52.40
2022-08-29T16:09:44.941Z,51.94
2022-08-29T16:12:11.927Z,52.03
2022-08-29T16:14:58.544Z,52.24
2022-08-29T16:17:29.641Z,53.14
2022-08-29T16:19:56.815Z,54.19
2022-08-29T16:22:24.385Z,55.56
2022-08-29T16:24:51.294Z,56.31
2022-08-29T16:27:22.008Z,57.26
2022-08-29T16:29:48.916Z,57.41
2022-08-29T16:32:16.288Z,58.25
2022-08-29T16:34:43.479Z,59.40
2022-08-29T16:37:10.751Z,59.95
2022-08-29T16:39:37.661Z,60.82
2022-08-29T16:42:04.687Z,60.98
2022-08-29T16:44:33.150Z,61.53
2022-08-29T16:47:00.088Z,61.83
2022-08-29T16:49:27.185Z,62.50
2022-08-29T16:51:54.089Z,62.58
2022-08-29T16:54:20.998Z,62.74
2022-08-29T16:56:47.938Z,62.86
2022-08-29T16:59:14.974Z,62.60
2022-08-29T17:01:46.175Z,62.80
2022-08-29T17:04:22.274Z,62.86
2022-08-29T17:06:49.508Z,62.75
2022-08-29T17:09:20.296Z,63.09
2022-08-29T17:11:47.836Z,63.56
2022-08-29T17:14:17.294Z,63.59
2022-08-29T17:16:47.592Z,63.73
2022-08-29T17:19:15.162Z,64.25
2022-08-29T17:21:43.228Z,64.71
2022-08-29T17:24:11.139Z,64.83
2022-08-29T17:26:42.125Z,65.18
2022-08-29T17:29:10.047Z,65.21
2022-08-29T17:31:38.931Z,65.38
2022-08-29T17:34:08.167Z,65.62
2022-08-29T17:36:36.902Z,65.67
2022-08-29T17:39:06.092Z,66.09
2022-08-29T17:41:33.432Z,66.19
2022-08-29T17:44:02.488Z,66.04
2022-08-29T17:46:29.854Z,66.21
2022-08-29T17:48:57.159Z,66.14
2022-08-29T17:51:24.248Z,66.60
2022-08-29T17:53:51.815Z,66.14
2022-08-29T17:56:26.417Z,66.10
2022-08-29T17:58:53.385Z,65.79
2022-08-29T18:01:20.397Z,65.97
2022-08-29T18:03:47.380Z,66.04
2022-08-29T18:06:15.330Z,65.57
2022-08-29T18:08:44.096Z,65.12
2022-08-29T18:11:16.539Z,64.04
2022-08-29T18:13:44.127Z,63.65
2022-08-29T18:16:12.044Z,63.41
2022-08-29T18:18:41.228Z,63.21
2022-08-29T18:21:08.817Z,63.57
2022-08-29T18:23:36.391Z,63.63
2022-08-29T18:26:04.087Z,63.45
2022-08-29T18:28:31.465Z,63.41
2022-08-29T18:30:59.000Z,63.31
2022-08-29T18:33:38.908Z,63.11
2022-08-29T18:36:11.929Z,62.56
2022-08-29T18:38:38.852Z,62.29
2022-08-29T18:41:06.450Z,62.20
2022-08-29T18:43:34.754Z,62.02
2022-08-29T18:46:03.739Z,61.92
2022-08-29T18:48:31.348Z,61.48
2022-08-29T18:50:59.665Z,61.54
2022-08-29T18:53:31.010Z,61.11
2022-08-29T18:56:00.199Z,61.21
2022-08-29T18:58:30.972Z,61.22
2022-08-29T19:00:59.707Z,61.33
2022-08-29T19:03:26.955Z,61.27
2022-08-29T19:05:53.975Z,61.35
2022-08-29T19:08:24.721Z,61.55
2022-08-29T19:10:55.299Z,61.71
2022-08-29T19:13:25.318Z,61.87
2022-08-29T19:15:56.741Z,61.97
2022-08-29T19:18:23.721Z,62.15
2022-08-29T19:21:02.427Z,62.42
2022-08-29T19:23:38.263Z,62.76
2022-08-29T19:26:34.959Z,62.82
2022-08-29T19:29:12.550Z,62.98
2022-08-29T19:31:41.184Z,63.47
2022-08-29T19:34:08.515Z,63.68
2022-08-29T19:36:36.478Z,63.67
2022-08-29T19:39:03.651Z,63.97
2022-08-29T19:41:34.285Z,63.61
2022-08-29T19:44:01.280Z,63.81
2022-08-29T19:46:28.198Z,64.02
2022-08-29T19:48:55.396Z,63.67
2022-08-29T19:51:24.425Z,63.29
2022-08-29T19:53:53.520Z,63.01
2022-08-29T19:56:20.452Z,62.73
2022-08-29T19:58:47.620Z,62.86
2022-08-29T20:01:16.947Z,62.92
2022-08-29T20:03:43.994Z,62.90
2022-08-29T20:06:12.227Z,62.97
2022-08-29T20:08:45.462Z,62.58
2022-08-29T20:11:21.100Z,62.65
2022-08-29T20:13:51.149Z,62.46
2022-08-29T20:16:22.394Z,62.19
2022-08-29T20:18:52.106Z,62.34
2022-08-29T20:21:20.904Z,62.60
2022-08-29T20:23:52.858Z,63.06
2022-08-29T20:26:24.512Z,63.66
2022-08-29T20:28:52.532Z,64.39
2022-08-29T20:31:20.270Z,64.54
2022-08-29T20:33:48.792Z,64.87
2022-08-29T20:36:38.621Z,65.19
2022-08-29T20:39:07.706Z,65.56
2022-08-29T20:41:34.660Z,66.21
2022-08-29T20:44:06.922Z,66.31
2022-08-29T20:46:40.254Z,66.44
2022-08-29T20:49:09.599Z,67.01
2022-08-29T20:51:37.579Z,67.17
2022-08-29T20:54:06.161Z,67.38
2022-08-29T20:56:33.306Z,67.13
2022-08-29T20:59:00.215Z,67.77
2022-08-29T21:01:27.230Z,67.73
2022-08-29T21:04:13.011Z,68.14
2022-08-29T21:06:39.932Z,68.37
2022-08-29T21:09:07.386Z,68.79
2022-08-29T21:11:34.448Z,69.15
2022-08-29T21:14:01.379Z,68.96
2022-08-29T21:16:28.633Z,69.16
2022-08-29T21:18:55.655Z,69.18
2022-08-29T21:21:24.946Z,68.91
2022-08-29T21:23:52.332Z,68.97
2022-08-29T21:26:19.242Z,69.06
2022-08-29T21:28:47.224Z,69.32
2022-08-29T21:31:15.462Z,69.25
2022-08-29T21:33:45.428Z,69.37
2022-08-29T21:36:19.162Z,69.92
2022-08-29T21:38:48.158Z,70.20
2022-08-29T21:41:15.864Z,70.45
2022-08-29T21:43:43.020Z,70.34
2022-08-29T21:46:29.793Z,70.30
2022-08-29T21:49:00.129Z,71.03
2022-08-29T21:51:28.376Z,70.92
2022-08-29T21:53:57.486Z,70.93
2022-08-29T21:56:26.888Z,70.71
2022-08-29T21:58:55.109Z,71.35
2022-08-29T22:01:27.170Z,71.22
2022-08-29T22:03:54.592Z,71.72
2022-08-29T22:06:21.949Z,71.64
2022-08-29T22:08:49.330Z,71.76
2022-08-29T22:11:24.936Z,71.79
2022-08-29T22:14:06.191Z,71.71
2022-08-29T22:16:33.594Z,71.90
2022-08-29T22:19:03.949Z,71.72
2022-08-29T22:21:35.981Z,71.72
2022-08-29T22:24:03.756Z,72.02
2022-08-29T22:26:30.840Z,71.61
2022-08-29T22:28:57.750Z,71.89
2022-08-29T22:31:24.920Z,72.22
2022-08-29T22:33:51.990Z,72.15
2022-08-29T22:36:20.045Z,71.98
2022-08-29T22:38:47.734Z,71.83
2022-08-29T22:41:23.596Z,70.83
2022-08-29T22:44:16.483Z,70.88
2022-08-29T22:46:43.947Z,70.62
2022-08-29T22:49:10.939Z,70.85
2022-08-29T22:51:37.927Z,70.80
2022-08-29T22:54:23.867Z,71.06
2022-08-29T22:56:50.881Z,70.88
2022-08-29T22:59:21.624Z,71.00
2022-08-29T23:01:48.640Z,70.48
2022-08-29T23:04:15.635Z,70.28
2022-08-29T23:06:42.632Z,70.41
2022-08-29T23:09:10.488Z,69.87
2022-08-29T23:11:37.635Z,69.46
2022-08-29T23:14:06.787Z,69.46
2022-08-29T23:16:34.835Z,69.46
2022-08-29T23:19:02.444Z,69.56
2022-08-29T23:21:31.114Z,69.22
2022-08-29T23:23:58.506Z,69.49
2022-08-29T23:26:26.554Z,69.63
2022-08-29T23:28:53.860Z,69.96
2022-08-29T23:31:22.539Z,70.02
2022-08-29T23:33:50.227Z,70.22
2022-08-29T23:36:18.520Z,69.78
2022-08-29T23:38:45.652Z,69.64
2022-08-29T23:41:13.581Z,69.54
2022-08-29T23:43:41.361Z,69.09
2022-08-29T23:46:08.727Z,69.18
2022-08-29T23:48:36.152Z,69.20
2022-08-29T23:51:09.026Z,69.74
2022-08-29T23:53:36.215Z,69.84
2022-08-29T23:56:16.159Z,69.71
2022-08-29T23:58:43.258Z,69.79
